createdAt,value
2023-04-27T00:03:40.137Z,1.80
2023-04-27T00:09:42.159Z,1.80
2023-04-27T00:15:45.401Z,1.80
2023-04-27T00:21:47.272Z,1.80
2023-04-27T00:27:49.238Z,1.80
2023-04-27T00:33:51.205Z,1.70
2023-04-27T00:39:53.070Z,1.80
2023-04-27T00:45:55.124Z,1.80
2023-04-27T00:51:57.078Z,1.80
2023-04-27T00:57:59.057Z,1.80
2023-04-27T01:04:01.866Z,1.70
2023-04-27T01:10:05.944Z,1.70
2023-04-27T01:16:08.503Z,1.80
2023-04-27T01:22:10.424Z,1.90
2023-04-27T01:28:12.601Z,1.90
2023-04-27T01:34:14.504Z,1.80
2023-04-27T01:40:17.696Z,1.80
2023-04-27T01:46:19.655Z,1.70
2023-04-27T01:52:21.588Z,1.50
2023-04-27T01:58:23.514Z,1.40
2023-04-27T02:04:25.925Z,1.50
2023-04-27T02:10:27.927Z,1.50
2023-04-27T02:16:29.950Z,1.70
2023-04-27T02:22:31.839Z,1.80
2023-04-27T02:28:33.776Z,2.00
2023-04-27T02:34:36.203Z,1.90
2023-04-27T02:40:38.247Z,1.90
2023-04-27T02:46:40.209Z,2.00
2023-04-27T02:52:42.171Z,2.10
2023-04-27T02:58:44.851Z,2.20
2023-04-27T03:04:47.299Z,2.20
2023-04-27T03:10:49.227Z,2.20
2023-04-27T03:16:51.178Z,2.40
2023-04-27T03:22:53.188Z,2.40
2023-04-27T03:28:55.090Z,2.50
2023-04-27T03:34:57.090Z,2.50
2023-04-27T03:40:59.043Z,2.40
2023-04-27T03:47:01.656Z,2.30
2023-04-27T03:53:03.884Z,2.20
2023-04-27T03:59:05.880Z,2.10
2023-04-27T04:05:08.898Z,2.10
2023-04-27T04:11:10.957Z,2.00
2023-04-27T04:17:12.825Z,1.90
2023-04-27T04:23:14.714Z,1.70
2023-04-27T04:29:16.877Z,1.60
2023-04-27T04:35:19.772Z,1.60
2023-04-27T04:41:21.688Z,1.50
2023-04-27T04:47:23.610Z,1.40
2023-04-27T04:53:26.177Z,1.30
2023-04-27T04:59:29.391Z,1.40
2023-04-27T05:05:32.179Z,1.40
2023-04-27T05:11:34.098Z,1.50
2023-04-27T05:17:36.138Z,1.60
2023-04-27T05:23:38.026Z,1.90
2023-04-27T05:29:39.912Z,2.20
2023-04-27T05:35:41.840Z,2.50
2023-04-27T05:41:43.715Z,2.80
2023-04-27T05:47:45.926Z,3.10
2023-04-27T05:53:47.888Z,3.40
2023-04-27T05:59:49.771Z,3.70
2023-04-27T06:06:00.354Z,4.00
2023-04-27T06:12:04.335Z,4.10
2023-04-27T06:18:06.262Z,4.30
2023-04-27T06:24:08.236Z,4.50
2023-04-27T06:30:10.939Z,4.90
2023-04-27T06:36:12.876Z,5.10
2023-04-27T06:42:14.828Z,5.50
2023-04-27T06:48:17.164Z,5.70
2023-04-27T06:54:19.624Z,6.20
2023-04-27T07:00:21.985Z,7.00
2023-04-27T07:06:25.590Z,7.50
2023-04-27T07:12:27.891Z,7.50
2023-04-27T07:18:29.775Z,7.60
2023-04-27T07:24:31.664Z,7.90
2023-04-27T07:30:36.409Z,8.40
2023-04-27T07:36:38.565Z,8.70
2023-04-27T07:42:42.035Z,9.00
2023-04-27T07:48:44.942Z,9.10
2023-04-27T07:54:46.897Z,9.60
2023-04-27T08:00:48.780Z,10.20
2023-04-27T08:06:51.386Z,10.50
2023-04-27T08:12:53.567Z,10.30
2023-04-27T08:18:55.726Z,10.50
2023-04-27T08:24:57.653Z,11.00
2023-04-27T08:30:59.871Z,11.50
2023-04-27T08:37:03.298Z,11.40
2023-04-27T08:43:05.195Z,11.70
2023-04-27T08:49:08.010Z,11.80
2023-04-27T08:55:10.162Z,11.90
2023-04-27T09:01:12.208Z,12.70
2023-04-27T09:07:17.681Z,12.50
2023-04-27T09:13:19.582Z,12.40
2023-04-27T09:19:29.275Z,13.50
2023-04-27T09:25:33.400Z,13.70
2023-04-27T09:31:36.106Z,14.00
2023-04-27T09:37:38.112Z,13.50
2023-04-27T09:43:41.376Z,13.90
2023-04-27T09:49:43.376Z,14.40
2023-04-27T09:55:59.732Z,14.30
2023-04-27T10:02:17.158Z,15.20
2023-04-27T10:08:25.503Z,14.80
2023-04-27T10:14:29.072Z,15.70
2023-04-27T10:20:36.073Z,16.30
2023-04-27T10:26:48.258Z,16.40
2023-04-27T10:33:05.166Z,15.80
2023-04-27T10:39:18.450Z,14.70
2023-04-27T10:45:31.122Z,16.10
2023-04-27T10:51:33.858Z,17.70
2023-04-27T10:57:45.116Z,18.10
2023-04-27T11:03:59.325Z,19.80
2023-04-27T11:10:01.262Z,19.70
2023-04-27T11:16:05.359Z,20.10
2023-04-27T11:22:07.654Z,20.80
2023-04-27T11:28:19.174Z,21.60
2023-04-27T11:34:23.944Z,21.20
2023-04-27T11:40:27.178Z,21.70
2023-04-27T11:46:29.194Z,21.20
2023-04-27T11:52:32.840Z,21.10
2023-04-27T11:58:36.270Z,18.90
2023-04-27T12:04:38.432Z,18.00
2023-04-27T12:10:41.790Z,18.90
2023-04-27T12:16:43.738Z,20.00
2023-04-27T12:22:45.675Z,20.70
2023-04-27T12:28:47.608Z,19.70
2023-04-27T12:34:49.483Z,20.90
2023-04-27T12:40:51.460Z,22.20
2023-04-27T12:46:53.455Z,23.40
2023-04-27T12:52:55.462Z,23.20
2023-04-27T12:58:57.767Z,24.30
2023-04-27T13:04:59.777Z,24.70
2023-04-27T13:11:01.809Z,24.10
2023-04-27T13:17:04.254Z,23.70
2023-04-27T13:23:06.671Z,24.60
2023-04-27T13:29:08.603Z,23.80
2023-04-27T13:35:10.689Z,24.20
2023-04-27T13:41:12.674Z,25.00
2023-04-27T13:47:14.687Z,24.20
2023-04-27T13:53:17.074Z,25.00
2023-04-27T13:59:19.064Z,24.20
2023-04-27T14:05:21.069Z,23.20
2023-04-27T14:11:23.392Z,24.80
2023-04-27T14:17:25.653Z,25.60
2023-04-27T14:23:27.595Z,26.80
2023-04-27T14:29:29.482Z,26.50
2023-04-27T14:35:35.073Z,25.70
2023-04-27T14:41:37.491Z,25.30
2023-04-27T14:47:39.521Z,25.70
2023-04-27T14:53:41.489Z,27.40
2023-04-27T14:59:44.392Z,28.10
2023-04-27T15:05:46.623Z,29.00
2023-04-27T15:11:48.530Z,28.60
2023-04-27T15:17:50.590Z,26.50
2023-04-27T15:23:52.506Z,24.30
2023-04-27T15:29:55.281Z,24.10
2023-04-27T15:35:58.985Z,22.60
2023-04-27T15:42:01.457Z,22.00
2023-04-27T15:48:03.781Z,21.10
2023-04-27T15:54:05.893Z,20.70
2023-04-27T16:00:12.036Z,20.40
2023-04-27T16:06:13.939Z,20.70
2023-04-27T16:12:15.872Z,20.40
2023-04-27T16:18:17.818Z,19.60
2023-04-27T16:24:19.824Z,20.30
2023-04-27T16:30:23.615Z,21.50
2023-04-27T16:36:25.549Z,22.50
2023-04-27T16:42:27.469Z,22.20
2023-04-27T16:48:30.220Z,21.30
2023-04-27T16:54:32.116Z,20.60
2023-04-27T17:00:34.142Z,19.40
2023-04-27T17:06:36.202Z,18.40
2023-04-27T17:12:38.256Z,17.50
2023-04-27T17:18:40.625Z,16.60
2023-04-27T17:24:42.581Z,15.70
2023-04-27T17:30:44.504Z,15.10
2023-04-27T17:36:46.540Z,14.60
2023-04-27T17:42:49.453Z,14.20
2023-04-27T17:48:51.562Z,13.70
2023-04-27T17:54:53.503Z,13.40
2023-04-27T18:00:55.634Z,13.20
2023-04-27T18:06:57.608Z,12.70
2023-04-27T18:12:59.777Z,12.30
2023-04-27T18:19:01.723Z,11.80
2023-04-27T18:25:04.064Z,11.40
2023-04-27T18:31:17.582Z,11.10
2023-04-27T18:37:19.645Z,10.90
2023-04-27T18:43:21.564Z,10.50
2023-04-27T18:49:23.610Z,10.30
2023-04-27T18:55:25.541Z,10.10
2023-04-27T19:01:31.592Z,9.80
2023-04-27T19:07:33.762Z,9.60
2023-04-27T19:13:35.772Z,9.50
2023-04-27T19:19:37.684Z,9.30
2023-04-27T19:25:40.416Z,9.20
2023-04-27T19:31:42.384Z,9.10
2023-04-27T19:37:44.339Z,9.00
2023-04-27T19:43:46.210Z,8.90
2023-04-27T19:49:48.118Z,8.70
2023-04-27T19:55:50.095Z,8.60
2023-04-27T20:01:52.334Z,8.80
2023-04-27T20:07:54.305Z,8.80
2023-04-27T20:13:56.187Z,8.80
2023-04-27T20:19:58.070Z,8.90
2023-04-27T20:26:00.134Z,9.00
2023-04-27T20:32:02.347Z,9.00
2023-04-27T20:38:04.466Z,8.90
2023-04-27T20:44:07.424Z,8.80
2023-04-27T20:50:09.696Z,8.70
2023-04-27T20:56:11.979Z,8.50
2023-04-27T21:02:15.097Z,8.30
2023-04-27T21:08:17.369Z,8.30
2023-04-27T21:14:19.340Z,8.20
2023-04-27T21:20:21.390Z,8.20
2023-04-27T21:26:23.296Z,8.10
2023-04-27T21:32:25.176Z,8.10
2023-04-27T21:38:27.112Z,7.90
2023-04-27T21:44:29.016Z,7.80
2023-04-27T21:50:31.109Z,7.70
2023-04-27T21:56:33.010Z,7.60
2023-04-27T22:02:35.037Z,7.50
2023-04-27T22:08:37.180Z,7.50
2023-04-27T22:14:39.065Z,7.50
2023-04-27T22:20:42.338Z,7.60
2023-04-27T22:26:44.379Z,7.70
2023-04-27T22:32:46.594Z,7.70
2023-04-27T22:38:50.749Z,7.70
2023-04-27T22:44:52.672Z,7.80
2023-04-27T22:50:54.551Z,7.80
2023-04-27T22:56:57.370Z,7.70
2023-04-27T23:02:59.602Z,7.60
2023-04-27T23:09:03.080Z,7.50
2023-04-27T23:15:05.685Z,7.50
2023-04-27T23:21:07.610Z,7.50
2023-04-27T23:27:09.515Z,7.50
2023-04-27T23:33:11.381Z,7.40
2023-04-27T23:39:13.255Z,7.40
2023-04-27T23:45:15.286Z,7.10
2023-04-27T23:51:17.360Z,7.10
2023-04-27T23:57:19.245Z,7.10
